EDT,Max TemperatureF,Mean TemperatureF,Min TemperatureF,Max Dew PointF,MeanDew PointF,Min DewpointF,Max Humidity, Mean Humidity, Min Humidity, Max Sea Level PressureIn, Mean Sea Level PressureIn, Min Sea Level PressureIn, Max VisibilityMiles, Mean VisibilityMiles, Min VisibilityMiles, Max Wind SpeedMPH, Mean Wind SpeedMPH, Max Gust SpeedMPH,PrecipitationIn, CloudCover, Events, WindDirDegrees
2013-9-1,78,72,66,70,68,65,97,87,73,29.82,29.80,29.77,10,7,5,12,5,14,0.00,7,Fog,226
2013-9-2,82,70,58,70,64,55,100,83,38,29.95,29.83,29.77,10,4,0,16,7,25,0.00,5,Fog,293
2013-9-3,76,64,51,56,53,49,89,71,43,30.06,30.02,29.96,10,10,10,13,5,17,0.00,3,,317
2013-9-4,81,66,51,59,54,49,93,71,34,30.15,30.11,30.07,10,9,5,14,4,18,0.00,3,,265
2013-9-5,80,67,53,58,49,40,90,57,24,30.25,30.20,30.13,10,10,10,13,5,16,0.00,2,,32
2013-9-6,79,64,48,55,49,44,86,61,26,30.29,30.21,30.10,10,10,10,12,3,14,0.00,3,,132
2013-9-7,87,73,58,67,59,52,84,65,31,30.09,30.01,29.94,10,10,7,16,6,21,T,5,Rain,223
2013-9-8,77,69,61,67,64,57,94,82,61,30.06,30.01,29.94,10,7,2,20,8,33,T,6,Fog-Rain,73
2013-9-9,91,76,60,70,63,53,84,68,37,30.04,29.98,29.91,10,9,7,18,8,25,T,4,,157
2013-9-10,95,84,73,72,67,59,93,63,23,30.07,30.03,29.96,10,8,4,16,9,21,0.00,2,,228
2013-9-11,95,83,70,70,66,61,87,63,25,30.10,30.04,29.97,10,10,7,17,7,23,0.00,4,,239
2013-9-12,83,71,59,68,64,53,94,80,30,29.99,29.95,29.84,10,8,4,22,7,26,0.24,7,Rain,277
2013-9-13,65,56,46,53,45,41,86,65,36,30.15,30.08,30.00,10,10,10,17,8,24,0.00,2,,356
2013-9-14,70,54,37,45,39,32,97,63,15,30.23,30.17,30.12,10,10,10,8,1,10,0.00,2,Fog,148
2013-9-15,73,58,43,56,48,39,96,73,28,30.15,30.11,30.02,10,8,2,13,5,17,0.23,7,Rain,141
2013-9-16,68,58,48,55,52,45,100,80,53,30.35,30.26,30.13,10,8,3,16,6,25,0.00,6,,36
2013-9-17,71,57,43,50,45,41,93,67,31,30.39,30.31,30.21,10,10,7,12,5,16,0.00,4,,79
2013-9-18,82,68,53,59,51,48,87,62,23,30.19,30.11,30.04,10,10,5,10,4,16,T,6,Rain,159
2013-9-19,77,71,64,70,66,63,100,89,71,30.07,30.02,29.92,10,7,1,13,6,17,0.81,7,Rain-Thunderstorm,213
2013-9-20,80,73,66,69,67,64,100,85,61,29.93,29.84,29.78,10,8,2,17,8,26,0.43,7,Rain,235
2013-9-21,71,60,49,65,52,45,94,72,34,29.91,29.81,29.75,10,10,6,18,8,30,T,5,Rain,302
2013-9-22,66,56,46,50,45,41,93,67,30,30.07,30.00,29.92,10,10,10,13,6,18,0.00,3,,6
2013-9-23,67,54,41,46,43,40,92,70,34,30.17,30.12,30.08,10,10,10,13,6,17,0.00,1,,81
2013-9-24,69,55,41,47,44,40,92,69,31,30.14,30.06,29.98,10,9,4,14,7,18,0.00,1,,84
2013-9-25,73,60,47,52,49,45,96,72,33,30.00,29.96,29.93,10,8,2,13,5,16,0.00,4,,57
2013-9-26,79,63,47,57,48,40,97,71,35,30.13,30.06,29.98,10,7,1,13,4,16,0.00,0,,53
2013-9-27,79,62,44,55,48,41,90,63,24,30.22,30.17,30.13,10,10,7,13,6,17,0.00,3,,87
2013-9-28,82,64,45,54,50,45,93,66,26,30.19,30.12,30.03,10,10,7,16,6,24,0.00,2,Fog,146
2013-9-29,63,59,54,61,58,53,100,90,71,30.02,30.01,29.99,10,5,0,10,5,14,0.18,7,Fog-Rain,216
2013-9-30,73,63,52,58,54,52,100,87,41,30.04,30.01,29.94,10,5,0,13,2,16,0.00,5,Fog,208